Time;durP1;ratioP1;P1;durP2;ratioP2;P2;SDS_P1;SDS_P2;PMS_P1;PMS_P2;Temp;Humidity;BMP_temperature;BMP_pressure;BME280_temperature;BME280_humidity;BME280_pressure;Samples;Min_cycle;Max_cycle;Signal;HPM_P1;HPM_P2
2022/11/26 00:02:15;;;;;;;0.30;0.30;;;;;;;;;;7389242;19;20120;-63
2022/11/26 00:04:40;;;;;;;0.30;0.30;;;;;;;;;;7392776;19;20132;-63
2022/11/26 00:07:09;;;;;;;0.47;0.47;;;;;;;;;;7393802;19;20133;-63
2022/11/26 00:09:34;;;;;;;0.30;0.30;;;;;;;;;;7387328;19;20149;-63
2022/11/26 00:11:59;;;;;;;0.30;0.30;;;;;;;;;;7394266;19;20184;-63
2022/11/26 00:14:25;;;;;;;0.30;0.30;;;;;;;;;;7394153;19;20557;-62
2022/11/26 00:16:50;;;;;;;0.47;0.47;;;;;;;;;;7389560;19;20595;-63
2022/11/26 00:19:15;;;;;;;0.30;0.30;;;;;;;;;;7392521;19;20137;-63
2022/11/26 00:21:41;;;;;;;0.30;0.30;;;;;;;;;;7389514;19;20129;-63
2022/11/26 00:24:24;;;;;;;0.30;0.30;;;;;;;;;;7391751;19;20121;-63
2022/11/26 00:26:49;;;;;;;0.20;0.20;;;;;;;;;;7391332;19;20113;-63
2022/11/26 00:29:14;;;;;;;0.30;0.30;;;;;;;;;;7387614;19;20164;-63
2022/11/26 00:31:40;;;;;;;0.30;0.30;;;;;;;;;;7391530;19;20145;-63
2022/11/26 00:34:05;;;;;;;0.20;0.20;;;;;;;;;;7393480;19;20124;-62
2022/11/26 00:36:31;;;;;;;0.30;0.30;;;;;;;;;;7387652;19;20695;-63
2022/11/26 00:39:03;;;;;;;0.30;0.30;;;;;;;;;;7385687;19;20153;-63
2022/11/26 00:41:31;;;;;;;0.30;0.30;;;;;;;;;;7390425;19;20212;-62
2022/11/26 00:43:57;;;;;;;0.40;0.40;;;;;;;;;;7389542;19;20121;-64
2022/11/26 00:46:23;;;;;;;0.20;0.20;;;;;;;;;;7393227;19;20117;-63
2022/11/26 00:48:48;;;;;;;0.20;0.20;;;;;;;;;;7387496;19;20156;-63
2022/11/26 00:51:17;;;;;;;0.30;0.30;;;;;;;;;;7393270;19;20498;-64
2022/11/26 00:53:43;;;;;;;0.30;0.30;;;;;;;;;;7387489;19;20443;-64
2022/11/26 00:56:13;;;;;;;0.30;0.30;;;;;;;;;;7389803;19;20169;-64
2022/11/26 00:58:39;;;;;;;0.40;0.40;;;;;;;;;;7386557;19;20153;-62
2022/11/26 01:01:04;;;;;;;0.20;0.20;;;;;;;;;;7390534;19;20121;-63
2022/11/26 01:03:30;;;;;;;0.30;0.30;;;;;;;;;;7389602;19;20121;-64
2022/11/26 01:05:57;;;;;;;0.20;0.20;;;;;;;;;;7390955;19;20152;-62
2022/11/26 01:08:29;;;;;;;0.20;0.20;;;;;;;;;;7391527;19;20616;-63
2022/11/26 01:10:54;;;;;;;0.30;0.30;;;;;;;;;;7390980;19;20489;-63
2022/11/26 01:13:20;;;;;;;0.50;0.50;;;;;;;;;;7387526;19;20200;-63
2022/11/26 01:15:45;;;;;;;0.30;0.30;;;;;;;;;;7391096;19;20129;-63
2022/11/26 01:18:16;;;;;;;0.20;0.20;;;;;;;;;;7389165;19;20121;-62
2022/11/26 01:20:42;;;;;;;0.20;0.20;;;;;;;;;;7383940;19;20156;-62
2022/11/26 01:23:11;;;;;;;0.30;0.30;;;;;;;;;;7391248;19;20607;-63
2022/11/26 01:25:38;;;;;;;0.20;0.20;;;;;;;;;;7390444;19;20132;-63
2022/11/26 01:28:03;;;;;;;0.30;0.30;;;;;;;;;;7387982;19;20121;-63
2022/11/26 01:30:31;;;;;;;0.30;0.30;;;;;;;;;;7384907;19;20156;-63
2022/11/26 01:32:56;;;;;;;0.20;0.20;;;;;;;;;;7386215;19;20640;-62
2022/11/26 01:35:22;;;;;;;0.40;0.40;;;;;;;;;;7389254;19;20145;-63
2022/11/26 01:37:48;;;;;;;0.20;0.20;;;;;;;;;;7389886;19;20125;-63
2022/11/26 01:40:25;;;;;;;0.30;0.30;;;;;;;;;;7385919;19;20180;-63
2022/11/26 01:43:19;;;;;;;0.20;0.20;;;;;;;;;;7388686;19;20117;-63
2022/11/26 01:45:45;;;;;;;0.30;0.30;;;;;;;;;;7383084;19;20157;-62
2022/11/26 01:48:26;;;;;;;0.20;0.20;;;;;;;;;;7389117;19;20121;-63
2022/11/26 01:51:02;;;;;;;0.30;0.30;;;;;;;;;;7389784;19;20623;-62
2022/11/26 01:53:47;;;;;;;0.43;0.43;;;;;;;;;;7388630;19;20132;-63
2022/11/26 01:56:26;;;;;;;0.40;0.40;;;;;;;;;;7383337;19;20494;-63
2022/11/26 01:59:00;;;;;;;0.30;0.30;;;;;;;;;;7388247;19;20171;-63
2022/11/26 02:01:25;;;;;;;0.23;0.23;;;;;;;;;;7382351;19;20124;-64
2022/11/26 02:04:09;;;;;;;0.20;0.20;;;;;;;;;;7390471;19;20117;-63
2022/11/26 02:06:35;;;;;;;0.20;0.20;;;;;;;;;;7389146;19;20629;-63
2022/11/26 02:09:03;;;;;;;0.20;0.20;;;;;;;;;;7385683;19;20148;-62
2022/11/26 02:11:29;;;;;;;0.20;0.20;;;;;;;;;;7383919;19;20203;-65
2022/11/26 02:13:58;;;;;;;0.20;0.20;;;;;;;;;;7389527;19;20206;-63
2022/11/26 02:16:43;;;;;;;0.27;0.27;;;;;;;;;;7387520;19;20133;-63
2022/11/26 02:19:53;;;;;;;0.20;0.20;;;;;;;;;;7388072;19;20152;-63
2022/11/26 02:22:31;;;;;;;0.30;0.30;;;;;;;;;;7385375;19;20132;-63
2022/11/26 02:25:06;;;;;;;0.30;0.30;;;;;;;;;;7386770;19;20129;-65
2022/11/26 02:28:07;;;;;;;0.30;0.30;;;;;;;;;;7386862;19;20227;-62
2022/11/26 02:30:40;;;;;;;0.30;0.30;;;;;;;;;;7382816;19;20179;-62
2022/11/26 02:33:16;;;;;;;0.30;0.30;;;;;;;;;;7385623;19;20131;-63
2022/11/26 02:35:46;;;;;;;0.30;0.30;;;;;;;;;;7387209;19;20136;-62
2022/11/26 02:38:29;;;;;;;0.20;0.20;;;;;;;;;;7386851;19;20137;-63
2022/11/26 02:40:54;;;;;;;0.40;0.40;;;;;;;;;;7387569;19;20149;-62
2022/11/26 02:43:19;;;;;;;0.20;0.20;;;;;;;;;;7383564;19;20157;-63
2022/11/26 02:45:47;;;;;;;0.30;0.30;;;;;;;;;;7385373;19;20117;-63
2022/11/26 02:48:18;;;;;;;0.30;0.30;;;;;;;;;;7387078;19;20125;-63
2022/11/26 02:50:49;;;;;;;0.20;0.20;;;;;;;;;;7383202;19;20218;-63
2022/11/26 02:53:16;;;;;;;0.20;0.20;;;;;;;;;;7395093;19;20630;-63
2022/11/26 02:55:47;;;;;;;0.57;0.50;;;;;;;;;;7394948;19;20142;-63
2022/11/26 02:58:13;;;;;;;0.30;0.30;;;;;;;;;;7388428;19;20171;-62
2022/11/26 03:00:40;;;;;;;0.30;0.30;;;;;;;;;;7387677;19;20145;-63
2022/11/26 03:03:22;;;;;;;0.30;0.30;;;;;;;;;;7394480;19;20140;-63
2022/11/26 03:05:51;;;;;;;0.30;0.30;;;;;;;;;;7393054;19;20195;-64
2022/11/26 15:06:58;;;;;;;1.13;0.83;;;;;;;;;;7382727;19;20192;-64
2022/11/26 15:09:26;;;;;;;0.20;0.20;;;;;;;;;;7381742;19;20345;-64
2022/11/26 15:12:02;;;;;;;0.33;0.33;;;;;;;;;;7388317;19;20192;-64
2022/11/26 15:14:36;;;;;;;0.30;0.30;;;;;;;;;;7391145;19;20120;-64
2022/11/26 15:17:04;;;;;;;0.30;0.30;;;;;;;;;;7389884;19;20526;-64
2022/11/26 15:19:32;;;;;;;0.23;0.23;;;;;;;;;;7381333;19;20248;-64
2022/11/26 15:21:57;;;;;;;0.23;0.23;;;;;;;;;;7384355;19;20147;-64
2022/11/26 15:24:23;;;;;;;0.60;0.60;;;;;;;;;;7371880;19;20110;-64
2022/11/26 15:26:48;;;;;;;0.20;0.20;;;;;;;;;;7386651;19;20129;-64
2022/11/26 15:29:40;;;;;;;0.20;0.20;;;;;;;;;;7386447;19;20564;-64
2022/11/26 15:32:23;;;;;;;0.20;0.20;;;;;;;;;;7381674;19;20168;-64
2022/11/26 15:34:49;;;;;;;0.30;0.30;;;;;;;;;;7376442;19;20128;-64
2022/11/26 15:37:14;;;;;;;0.30;0.30;;;;;;;;;;7368421;19;20121;-64
2022/11/26 15:39:40;;;;;;;0.20;0.20;;;;;;;;;;7379933;19;20149;-64
2022/11/26 15:42:23;;;;;;;0.30;0.30;;;;;;;;;;7379858;19;20611;-64
2022/11/26 15:44:49;;;;;;;0.30;0.30;;;;;;;;;;7372293;19;20628;-64
2022/11/26 15:47:19;;;;;;;0.30;0.30;;;;;;;;;;7366992;19;20149;-64
2022/11/26 15:49:47;;;;;;;0.20;0.20;;;;;;;;;;7361934;19;20607;-64
2022/11/26 15:52:13;;;;;;;0.30;0.30;;;;;;;;;;7375622;19;20125;-64
2022/11/26 15:54:41;;;;;;;0.30;0.30;;;;;;;;;;7352453;19;20536;-65
2022/11/26 15:57:15;;;;;;;0.50;0.50;;;;;;;;;;7367914;19;20137;-64
2022/11/26 15:59:45;;;;;;;0.57;0.43;;;;;;;;;;7380428;19;20520;-64
2022/11/26 16:02:30;;;;;;;0.30;0.30;;;;;;;;;;7386858;19;20132;-64
2022/11/26 16:05:00;;;;;;;0.20;0.20;;;;;;;;;;7383090;19;20551;-64
2022/11/26 16:07:28;;;;;;;0.20;0.20;;;;;;;;;;7392933;19;20374;-64
2022/11/26 16:10:15;;;;;;;0.20;0.20;;;;;;;;;;7387390;19;20647;-64
2022/11/26 16:12:43;;;;;;;0.30;0.30;;;;;;;;;;7392310;19;20121;-64
2022/11/26 16:15:21;;;;;;;0.20;0.20;;;;;;;;;;7386272;19;20130;-64
2022/11/26 16:17:48;;;;;;;0.70;0.70;;;;;;;;;;7382993;19;20128;-64
2022/11/26 16:20:18;;;;;;;0.20;0.20;;;;;;;;;;7381876;19;20666;-64
2022/11/26 16:22:45;;;;;;;0.20;0.20;;;;;;;;;;7367351;19;20125;-64
2022/11/26 16:25:27;;;;;;;0.20;0.20;;;;;;;;;;7373101;19;20123;-64
2022/11/26 16:28:04;;;;;;;0.20;0.20;;;;;;;;;;7381681;19;20125;-64
2022/11/26 16:30:30;;;;;;;0.20;0.20;;;;;;;;;;7380074;19;20149;-64
2022/11/26 16:32:55;;;;;;;0.30;0.30;;;;;;;;;;7387934;19;20131;-64
2022/11/26 16:35:24;;;;;;;0.20;0.20;;;;;;;;;;7389055;19;20140;-64
2022/11/26 16:37:49;;;;;;;0.20;0.20;;;;;;;;;;7389945;19;20133;-64
2022/11/26 16:40:16;;;;;;;0.30;0.30;;;;;;;;;;7384299;19;20162;-64
2022/11/26 16:42:41;;;;;;;0.30;0.30;;;;;;;;;;7386067;19;20196;-64
2022/11/26 16:45:08;;;;;;;0.20;0.20;;;;;;;;;;7382052;19;20522;-64
2022/11/26 16:47:35;;;;;;;0.30;0.30;;;;;;;;;;7380103;19;20629;-64
2022/11/26 16:50:01;;;;;;;0.20;0.20;;;;;;;;;;7384487;19;20702;-64
2022/11/26 16:52:27;;;;;;;0.27;0.27;;;;;;;;;;7384389;19;20174;-64
2022/11/26 16:54:52;;;;;;;0.30;0.30;;;;;;;;;;7387956;19;20471;-64
2022/11/26 16:57:20;;;;;;;0.20;0.20;;;;;;;;;;7389965;19;20138;-64
2022/11/26 16:59:49;;;;;;;0.20;0.20;;;;;;;;;;7386287;19;20157;-64
2022/11/26 17:02:16;;;;;;;0.20;0.20;;;;;;;;;;7373513;19;20686;-64
2022/11/26 17:04:41;;;;;;;0.20;0.20;;;;;;;;;;7383066;19;20597;-65
2022/11/26 17:07:11;;;;;;;0.20;0.20;;;;;;;;;;7382227;19;20149;-64
2022/11/26 17:09:36;;;;;;;0.20;0.20;;;;;;;;;;7382977;19;20200;-64
2022/11/26 17:12:01;;;;;;;0.20;0.20;;;;;;;;;;7385373;19;20121;-64
2022/11/26 17:14:27;;;;;;;0.20;0.20;;;;;;;;;;7386868;19;20132;-64
2022/11/26 17:16:52;;;;;;;0.20;0.20;;;;;;;;;;7383483;19;20121;-64
2022/11/26 17:19:17;;;;;;;0.20;0.20;;;;;;;;;;7376741;19;21104;-64
2022/11/26 17:21:43;;;;;;;0.30;0.30;;;;;;;;;;7375976;19;20172;-64
2022/11/26 17:24:08;;;;;;;0.30;0.30;;;;;;;;;;7377381;19;20187;-65
2022/11/26 17:26:33;;;;;;;0.20;0.20;;;;;;;;;;7385970;19;20505;-64
2022/11/26 17:29:00;;;;;;;0.20;0.20;;;;;;;;;;7383858;19;20141;-65
2022/11/26 17:31:25;;;;;;;0.50;0.50;;;;;;;;;;7380697;19;20125;-63
2022/11/26 17:33:52;;;;;;;0.20;0.20;;;;;;;;;;7383005;19;20563;-65
2022/11/26 17:36:19;;;;;;;0.20;0.20;;;;;;;;;;7374767;19;20125;-65
2022/11/26 17:38:45;;;;;;;0.30;0.30;;;;;;;;;;7379578;19;20124;-64
2022/11/26 17:41:11;;;;;;;0.20;0.20;;;;;;;;;;7382470;19;20121;-64
2022/11/26 17:43:37;;;;;;;0.20;0.20;;;;;;;;;;7383823;19;20131;-65
2022/11/26 17:46:02;;;;;;;0.20;0.20;;;;;;;;;;7376549;19;20132;-65
2022/11/26 17:48:27;;;;;;;0.30;0.30;;;;;;;;;;7376096;19;20156;-64
2022/11/26 17:50:53;;;;;;;0.30;0.30;;;;;;;;;;7375104;19;20781;-65
2022/11/26 17:53:18;;;;;;;0.30;0.30;;;;;;;;;;7375970;19;20129;-65
2022/11/26 17:55:43;;;;;;;0.20;0.20;;;;;;;;;;7380728;19;20121;-65
2022/11/26 17:58:10;;;;;;;0.30;0.30;;;;;;;;;;7382420;19;20121;-65
2022/11/26 18:00:35;;;;;;;0.20;0.20;;;;;;;;;;7363736;19;20157;-65
2022/11/26 18:03:01;;;;;;;0.30;0.30;;;;;;;;;;7363242;19;20148;-65
2022/11/26 18:05:27;;;;;;;0.20;0.20;;;;;;;;;;7380461;19;20136;-65
2022/11/26 18:07:52;;;;;;;0.30;0.30;;;;;;;;;;7382064;19;20129;-65
2022/11/26 18:10:19;;;;;;;0.30;0.30;;;;;;;;;;7380895;19;20236;-65
2022/11/26 18:12:44;;;;;;;0.20;0.20;;;;;;;;;;7382830;19;20692;-65
2022/11/26 18:15:21;;;;;;;0.23;0.23;;;;;;;;;;7382945;19;20150;-65
2022/11/26 18:17:49;;;;;;;0.20;0.20;;;;;;;;;;7385691;19;20443;-65
2022/11/26 18:20:18;;;;;;;0.20;0.20;;;;;;;;;;7381508;19;20185;-65
2022/11/26 18:22:45;;;;;;;0.20;0.20;;;;;;;;;;7377576;19;20218;-65
2022/11/26 18:25:11;;;;;;;0.30;0.30;;;;;;;;;;7381070;19;20117;-64
2022/11/26 18:27:36;;;;;;;0.20;0.20;;;;;;;;;;7378589;19;20133;-65
2022/11/26 18:30:02;;;;;;;0.30;0.30;;;;;;;;;;7375244;19;20948;-65
2022/11/26 18:32:28;;;;;;;0.20;0.20;;;;;;;;;;7378897;19;20125;-65
2022/11/26 18:34:53;;;;;;;0.40;0.40;;;;;;;;;;7380710;19;20120;-65
2022/11/26 18:37:18;;;;;;;0.30;0.30;;;;;;;;;;7380335;19;20140;-65
2022/11/26 18:39:44;;;;;;;0.30;0.30;;;;;;;;;;7357704;19;20152;-65
2022/11/26 18:42:09;;;;;;;0.30;0.30;;;;;;;;;;7365691;19;20136;-65
2022/11/26 18:44:35;;;;;;;0.27;0.27;;;;;;;;;;7373542;19;20137;-65
2022/11/26 18:47:00;;;;;;;0.30;0.30;;;;;;;;;;7366263;19;20152;-65
2022/11/26 18:49:26;;;;;;;0.37;0.37;;;;;;;;;;7369364;19;20526;-64
2022/11/26 18:51:51;;;;;;;0.30;0.30;;;;;;;;;;7355887;19;20157;-65
2022/11/26 18:54:16;;;;;;;0.20;0.20;;;;;;;;;;7353057;19;20133;-65
2022/11/26 18:56:42;;;;;;;0.30;0.30;;;;;;;;;;7363654;19;20137;-64
2022/11/26 18:59:09;;;;;;;1.70;1.07;;;;;;;;;;7360921;19;20148;-65
2022/11/26 19:01:34;;;;;;;0.23;0.23;;;;;;;;;;7359619;19;20767;-65
2022/11/26 19:03:59;;;;;;;0.30;0.30;;;;;;;;;;7363186;19;20121;-64
2022/11/26 19:06:27;;;;;;;0.20;0.20;;;;;;;;;;7360529;19;20136;-65
2022/11/26 19:08:58;;;;;;;0.30;0.30;;;;;;;;;;7376771;19;20161;-65
2022/11/26 19:11:24;;;;;;;0.40;0.40;;;;;;;;;;7381527;19;20129;-65
2022/11/26 19:13:49;;;;;;;0.20;0.20;;;;;;;;;;7366310;19;20203;-64
2022/11/26 19:16:16;;;;;;;0.50;0.50;;;;;;;;;;7367711;19;20117;-65
2022/11/26 19:18:42;;;;;;;0.30;0.30;;;;;;;;;;7371133;19;20623;-65
2022/11/26 19:21:25;;;;;;;0.77;0.77;;;;;;;;;;7384758;19;20176;-65
2022/11/26 19:23:51;;;;;;;0.30;0.30;;;;;;;;;;7367712;19;20641;-65
2022/11/26 19:26:17;;;;;;;0.30;0.30;;;;;;;;;;7382141;19;20125;-65
2022/11/26 19:28:43;;;;;;;0.30;0.30;;;;;;;;;;7375856;19;20125;-64
2022/11/26 19:31:11;;;;;;;0.40;0.40;;;;;;;;;;7378822;19;20114;-64
2022/11/26 19:33:37;;;;;;;0.30;0.30;;;;;;;;;;7382831;19;20168;-64
2022/11/26 19:36:05;;;;;;;0.20;0.20;;;;;;;;;;7390265;19;20121;-64
2022/11/26 19:38:30;;;;;;;0.30;0.30;;;;;;;;;;7382046;19;20182;-65
2022/11/26 19:40:57;;;;;;;0.23;0.23;;;;;;;;;;7389577;19;20587;-64
2022/11/26 19:43:24;;;;;;;0.30;0.30;;;;;;;;;;7373641;19;20595;-64
2022/11/26 19:45:49;;;;;;;0.20;0.20;;;;;;;;;;7374856;19;20144;-64
2022/11/26 19:48:14;;;;;;;0.97;0.87;;;;;;;;;;7380958;19;20129;-65
2022/11/26 19:50:40;;;;;;;0.30;0.30;;;;;;;;;;7361477;19;20571;-64
2022/11/26 19:53:05;;;;;;;0.20;0.20;;;;;;;;;;7366470;19;20152;-64
2022/11/26 19:55:30;;;;;;;0.30;0.30;;;;;;;;;;7379762;19;20121;-64
2022/11/26 19:57:56;;;;;;;0.27;0.27;;;;;;;;;;7378844;19;20148;-64
2022/11/26 20:00:21;;;;;;;0.20;0.20;;;;;;;;;;7364343;19;20168;-64
2022/11/26 20:02:46;;;;;;;0.30;0.30;;;;;;;;;;7377832;19;20121;-64
2022/11/26 20:05:12;;;;;;;0.30;0.30;;;;;;;;;;7382195;19;20121;-64
2022/11/26 20:07:37;;;;;;;0.20;0.20;;;;;;;;;;7371696;19;20133;-65
2022/11/26 20:10:03;;;;;;;0.37;0.37;;;;;;;;;;7377359;19;20573;-64
2022/11/26 20:12:28;;;;;;;0.50;0.50;;;;;;;;;;7382108;19;20187;-65
2022/11/26 20:14:54;;;;;;;0.20;0.20;;;;;;;;;;7370379;19;20224;-65
2022/11/26 20:17:19;;;;;;;0.30;0.30;;;;;;;;;;7378229;19;20152;-64
2022/11/26 20:19:45;;;;;;;0.30;0.30;;;;;;;;;;7378072;19;20646;-65
2022/11/26 20:22:10;;;;;;;0.30;0.30;;;;;;;;;;7386630;19;20136;-65
2022/11/26 20:24:35;;;;;;;0.20;0.20;;;;;;;;;;7385044;19;20117;-65
2022/11/26 20:27:01;;;;;;;1.13;0.87;;;;;;;;;;7389014;19;20130;-65
2022/11/26 20:29:26;;;;;;;0.37;0.30;;;;;;;;;;7384827;19;20229;-64
2022/11/26 20:31:52;;;;;;;0.40;0.40;;;;;;;;;;7381508;19;20159;-65
2022/11/26 20:34:28;;;;;;;0.57;0.57;;;;;;;;;;7380081;19;20128;-65
2022/11/26 20:36:54;;;;;;;0.40;0.40;;;;;;;;;;7371988;19;20270;-65
2022/11/26 20:39:21;;;;;;;0.20;0.20;;;;;;;;;;7374236;19;20252;-65
2022/11/26 20:41:47;;;;;;;0.37;0.37;;;;;;;;;;7381552;19;20152;-65
2022/11/26 20:44:12;;;;;;;0.30;0.30;;;;;;;;;;7385156;19;20121;-64
2022/11/26 20:46:37;;;;;;;0.70;0.70;;;;;;;;;;7370396;19;20138;-65
2022/11/26 20:49:04;;;;;;;0.47;0.40;;;;;;;;;;7374215;19;20149;-65
2022/11/26 20:51:29;;;;;;;0.30;0.30;;;;;;;;;;7368984;19;20599;-65
2022/11/26 20:53:57;;;;;;;0.40;0.40;;;;;;;;;;7376922;19;20125;-65
2022/11/26 20:56:23;;;;;;;0.20;0.20;;;;;;;;;;7380023;19;20224;-65
2022/11/26 20:58:49;;;;;;;0.20;0.20;;;;;;;;;;7374779;19;20714;-65
2022/11/26 21:01:20;;;;;;;0.30;0.30;;;;;;;;;;7365378;19;20882;-65
2022/11/26 21:03:47;;;;;;;0.27;0.27;;;;;;;;;;7373859;19;20133;-65
2022/11/26 21:06:13;;;;;;;0.40;0.40;;;;;;;;;;7373837;19;20208;-65
2022/11/26 21:08:39;;;;;;;0.20;0.20;;;;;;;;;;7366949;19;20521;-65
2022/11/26 21:11:05;;;;;;;0.20;0.20;;;;;;;;;;7378313;19;20138;-65
2022/11/26 21:13:30;;;;;;;1.23;0.97;;;;;;;;;;7375221;19;20121;-65
2022/11/26 21:15:56;;;;;;;0.30;0.30;;;;;;;;;;7372194;19;20525;-65
2022/11/26 21:18:21;;;;;;;0.33;0.33;;;;;;;;;;7377664;19;20127;-65
2022/11/26 21:20:46;;;;;;;0.30;0.30;;;;;;;;;;7384596;19;20651;-65
2022/11/26 21:23:12;;;;;;;0.30;0.30;;;;;;;;;;7383884;19;20117;-64
2022/11/26 21:25:39;;;;;;;0.30;0.30;;;;;;;;;;7385480;19;20134;-65
2022/11/26 21:28:05;;;;;;;0.20;0.20;;;;;;;;;;7384720;19;20329;-65
2022/11/26 21:30:32;;;;;;;0.50;0.50;;;;;;;;;;7385661;19;20157;-65
2022/11/26 21:32:57;;;;;;;0.30;0.30;;;;;;;;;;7388590;19;20121;-65
2022/11/26 21:35:22;;;;;;;0.20;0.20;;;;;;;;;;7387279;19;20205;-65
2022/11/26 21:37:47;;;;;;;0.73;0.47;;;;;;;;;;7383361;19;20117;-65
2022/11/26 21:40:13;;;;;;;0.30;0.30;;;;;;;;;;7380143;19;20645;-65
2022/11/26 21:42:39;;;;;;;0.97;0.97;;;;;;;;;;7384800;19;20600;-65
2022/11/26 21:45:05;;;;;;;0.30;0.30;;;;;;;;;;7378226;19;20503;-65
2022/11/26 21:47:30;;;;;;;0.20;0.20;;;;;;;;;;7384963;19;20149;-65
2022/11/26 21:49:55;;;;;;;0.30;0.30;;;;;;;;;;7378410;19;20141;-65
2022/11/26 21:52:20;;;;;;;0.30;0.30;;;;;;;;;;7383048;19;20140;-65
2022/11/26 21:54:46;;;;;;;0.30;0.30;;;;;;;;;;7374528;19;20470;-65
2022/11/26 21:57:11;;;;;;;0.27;0.27;;;;;;;;;;7365872;19;20137;-65
2022/11/26 21:59:36;;;;;;;0.20;0.20;;;;;;;;;;7376489;19;20256;-65
2022/11/26 22:02:04;;;;;;;0.30;0.30;;;;;;;;;;7372296;19;20131;-65
2022/11/26 22:04:29;;;;;;;0.40;0.40;;;;;;;;;;7378404;19;20120;-65
2022/11/26 22:06:54;;;;;;;0.40;0.40;;;;;;;;;;7386107;19;20462;-64
2022/11/26 22:09:20;;;;;;;0.20;0.20;;;;;;;;;;7380233;19;20972;-65
2022/11/26 22:11:45;;;;;;;0.30;0.30;;;;;;;;;;7376598;19;20209;-65
2022/11/26 22:14:13;;;;;;;0.30;0.30;;;;;;;;;;7387556;19;20135;-65
2022/11/26 22:16:39;;;;;;;0.30;0.30;;;;;;;;;;7367670;19;20653;-65
2022/11/26 22:19:04;;;;;;;0.20;0.20;;;;;;;;;;7377279;19;20145;-65
2022/11/26 22:21:32;;;;;;;0.30;0.30;;;;;;;;;;7377830;19;20550;-65
2022/11/26 22:23:59;;;;;;;0.20;0.20;;;;;;;;;;7378567;19;20487;-65
2022/11/26 22:26:25;;;;;;;0.60;0.47;;;;;;;;;;7375943;19;20125;-65
2022/11/26 22:28:50;;;;;;;0.60;0.60;;;;;;;;;;7361747;19;20432;-65
2022/11/26 22:31:30;;;;;;;0.20;0.20;;;;;;;;;;7376661;19;20129;-65
2022/11/26 22:33:59;;;;;;;0.20;0.20;;;;;;;;;;7369378;19;20132;-65
2022/11/26 22:36:25;;;;;;;0.20;0.20;;;;;;;;;;7373334;19;20180;-65
2022/11/26 22:38:51;;;;;;;0.20;0.20;;;;;;;;;;7379795;19;20120;-65
2022/11/26 22:41:16;;;;;;;0.30;0.30;;;;;;;;;;7371352;19;20135;-65
2022/11/26 22:43:42;;;;;;;0.27;0.27;;;;;;;;;;7364814;19;20239;-65
2022/11/26 22:46:16;;;;;;;0.30;0.30;;;;;;;;;;7382559;19;20125;-65
2022/11/26 22:48:42;;;;;;;0.30;0.30;;;;;;;;;;7375573;19;20123;-65
2022/11/26 22:51:08;;;;;;;0.30;0.30;;;;;;;;;;7372185;19;20133;-65
2022/11/26 22:53:34;;;;;;;0.33;0.33;;;;;;;;;;7370168;19;20129;-64
2022/11/26 22:56:00;;;;;;;0.40;0.40;;;;;;;;;;7380863;19;20114;-65
2022/11/26 22:58:26;;;;;;;0.20;0.20;;;;;;;;;;7371915;19;20217;-65
2022/11/26 23:00:58;;;;;;;0.50;0.50;;;;;;;;;;7371231;19;20662;-65
2022/11/26 23:03:25;;;;;;;0.20;0.20;;;;;;;;;;7378326;19;20128;-65
2022/11/26 23:05:51;;;;;;;0.20;0.20;;;;;;;;;;7381952;19;20659;-65
2022/11/26 23:08:17;;;;;;;0.20;0.20;;;;;;;;;;7383222;19;20722;-65
2022/11/26 23:10:43;;;;;;;0.40;0.40;;;;;;;;;;7386518;19;20658;-65
2022/11/26 23:13:10;;;;;;;0.40;0.40;;;;;;;;;;7383125;19;20147;-65
2022/11/26 23:15:40;;;;;;;0.50;0.50;;;;;;;;;;7381486;19;20140;-65
2022/11/26 23:18:05;;;;;;;0.40;0.40;;;;;;;;;;7380777;19;20121;-65
2022/11/26 23:20:31;;;;;;;0.20;0.20;;;;;;;;;;7368591;19;20153;-65
2022/11/26 23:22:56;;;;;;;0.20;0.20;;;;;;;;;;7382844;19;20157;-65
2022/11/26 23:25:21;;;;;;;0.50;0.50;;;;;;;;;;7390190;19;20184;-65
2022/11/26 23:27:47;;;;;;;0.40;0.40;;;;;;;;;;7393363;19;20121;-65
2022/11/26 23:30:12;;;;;;;0.30;0.30;;;;;;;;;;7383815;19;20482;-65
2022/11/26 23:32:37;;;;;;;0.20;0.20;;;;;;;;;;7388432;19;20626;-65
2022/11/26 23:35:03;;;;;;;0.20;0.20;;;;;;;;;;7390171;19;20125;-64
2022/11/26 23:37:28;;;;;;;0.20;0.20;;;;;;;;;;7390168;19;20143;-65
2022/11/26 23:39:53;;;;;;;0.40;0.40;;;;;;;;;;7389990;19;20196;-65
2022/11/26 23:42:19;;;;;;;0.70;0.70;;;;;;;;;;7390308;19;20124;-65
2022/11/26 23:44:44;;;;;;;0.37;0.37;;;;;;;;;;7392663;19;20140;-65
2022/11/26 23:47:09;;;;;;;0.20;0.20;;;;;;;;;;7392110;19;20487;-64
2022/11/26 23:49:35;;;;;;;0.20;0.20;;;;;;;;;;7380781;19;20813;-65
2022/11/26 23:52:00;;;;;;;0.30;0.30;;;;;;;;;;7393367;19;20477;-64
2022/11/26 23:54:25;;;;;;;0.20;0.20;;;;;;;;;;7389184;19;20193;-65
2022/11/26 23:56:50;;;;;;;0.30;0.30;;;;;;;;;;7391206;19;20145;-65
2022/11/26 23:59:17;;;;;;;0.20;0.20;;;;;;;;;;7380168;19;20533;-65
